Bienenfarm Airport EDOI

Flugplatz Daten

Name: Bienenfarm Airport

Ident: EDOI

Lat: 52,66166687

Long: 12,7458334

Platzhöhe: 131 ft

IataCode:

City: Nauen

Metar

2016/03/29 20:00
CYAB 292000Z 00000KT 25SM SKC M28/M32 A2998 RMK -26.6/-31.0/0.0/15 MEDOIUM PACK LAST STFD OBS/NXT 301100Z SLP159 DENSITY ALT MISG

Taf

Gewünschte Webcam nicht vorhanden? Dann fügen Sie eine hinzu. Sie wird dann so schnell wie möglich freigeschaltet
Url: Title: